Time;durP1;ratioP1;P1;durP2;ratioP2;P2;SDS_P1;SDS_P2;PMS_P1;PMS_P2;Temp;Humidity;BMP_temperature;BMP_pressure;BME280_temperature;BME280_humidity;BME280_pressure;Samples;Min_cycle;Max_cycle;Signal;HPM_P1;HPM_P2
2021/12/28 04:30:48;;;;;;;7.73;2.40;;;;;;;11.89;58.97;97130.41;8148849;23;20316;-85
2021/12/28 04:34:10;;;;;;;9.90;3.63;;;;;;;11.95;59.02;97137.50;6829600;29;20244;-82
2021/12/28 04:37:31;;;;;;;7.33;2.70;;;;;;;11.90;59.43;97140.13;6836744;28;20192;-83
2021/12/28 04:40:54;;;;;;;8.63;3.43;;;;;;;12.14;58.74;97135.22;6838705;28;20236;-83
2021/12/28 04:44:22;;;;;;;5.73;2.73;;;;;;;12.19;58.54;97129.88;6842694;28;20212;-82
2021/12/28 04:47:46;;;;;;;7.93;2.63;;;;;;;12.31;57.94;97130.53;6838979;28;20201;-84
2021/12/28 04:51:08;;;;;;;9.03;2.93;;;;;;;12.38;57.79;97128.44;6837909;28;20231;-82
2021/12/28 04:54:29;;;;;;;6.67;3.17;;;;;;;12.29;58.51;97114.59;6838993;28;20217;-82
2021/12/28 04:57:51;;;;;;;7.53;3.30;;;;;;;11.83;58.66;97034.22;6841627;28;20240;-82
2021/12/28 05:01:15;;;;;;;5.83;3.07;;;;;;;12.28;58.66;97114.84;6837971;28;20768;-81
2021/12/28 05:04:38;;;;;;;8.47;2.70;;;;;;;11.96;59.95;97100.47;6836071;28;20220;-82
2021/12/28 05:07:59;;;;;;;5.73;3.30;;;;;;;12.19;59.82;97102.88;6839716;28;20269;-83
2021/12/28 05:11:21;;;;;;;7.90;2.83;;;;;;;11.88;61.04;97096.38;6838707;28;20260;-82
2021/12/28 05:14:43;;;;;;;6.03;2.90;;;;;;;12.28;60.53;97082.44;6837691;28;20843;-82
2021/12/28 05:18:05;;;;;;;10.20;3.40;;;;;;;12.15;60.30;97062.06;6837088;28;20219;-82
2021/12/28 05:21:28;;;;;;;7.50;3.00;;;;;;;11.83;60.90;97038.78;6836003;28;20620;-82
2021/12/28 05:24:50;;;;;;;7.17;3.17;;;;;;;12.45;60.23;97072.31;6835677;29;20251;-82
2021/12/28 05:28:12;;;;;;;3.93;2.90;;;;;;;12.38;60.25;97069.81;6838655;28;20206;-83
2021/12/28 05:31:34;;;;;;;6.87;2.77;;;;;;;12.43;59.79;97059.03;6839442;28;20251;-82
2021/12/28 05:34:55;;;;;;;7.80;2.57;;;;;;;12.43;60.37;97066.31;6835217;28;20690;-81
2021/12/28 05:38:18;;;;;;;5.57;3.03;;;;;;;12.40;60.63;97064.16;6834956;28;20249;-82
2021/12/28 05:41:40;;;;;;;5.07;2.70;;;;;;;12.30;61.06;97066.75;6837179;28;20704;-82
2021/12/28 05:45:01;;;;;;;5.57;2.50;;;;;;;12.35;61.28;97064.94;6839478;28;20306;-83
2021/12/28 05:48:23;;;;;;;4.60;2.33;;;;;;;12.54;60.70;97068.03;6838101;28;20223;-82
2021/12/28 05:51:45;;;;;;;7.40;2.40;;;;;;;12.55;60.45;97065.09;6841090;28;20233;-82
2021/12/28 05:55:09;;;;;;;7.03;3.17;;;;;;;12.60;60.53;97059.72;6844321;28;20228;-84
2021/12/28 05:58:30;;;;;;;12.77;2.57;;;;;;;12.05;60.20;96943.09;6843435;28;20560;-82
2021/12/28 06:01:52;;;;;;;4.73;2.60;;;;;;;12.65;60.51;97040.00;6846515;28;20223;-83
2021/12/28 06:05:13;;;;;;;3.20;2.40;;;;;;;12.69;60.32;97033.00;6851714;28;20216;-83
2021/12/28 06:08:36;;;;;;;4.27;2.43;;;;;;;12.63;60.85;97048.38;6844929;28;20717;-82
2021/12/28 06:11:59;;;;;;;4.37;2.80;;;;;;;12.66;60.68;97045.16;6841452;28;20429;-82
2021/12/28 06:15:20;;;;;;;6.57;3.00;;;;;;;12.80;60.51;97046.31;6840128;28;20690;-82
2021/12/28 06:18:42;;;;;;;2.70;2.23;;;;;;;12.68;60.18;97024.06;6840731;28;20240;-82
2021/12/28 06:22:04;;;;;;;2.27;2.07;;;;;;;12.90;60.10;97035.56;6842074;28;20245;-83
2021/12/28 06:25:26;;;;;;;4.13;2.90;;;;;;;13.10;59.56;97048.41;6839837;28;20217;-82
2021/12/28 06:28:49;;;;;;;4.07;2.23;;;;;;;13.08;59.48;97034.31;6838726;28;20268;-82
2021/12/28 06:32:12;;;;;;;1.73;1.63;;;;;;;13.06;58.96;97014.84;6839475;28;20273;-81
2021/12/28 06:35:34;;;;;;;2.57;2.17;;;;;;;13.02;58.97;97008.31;6837858;28;20264;-82
2021/12/28 06:38:55;;;;;;;4.67;2.30;;;;;;;12.97;58.47;96994.75;6840208;28;20237;-84
2021/12/28 06:42:17;;;;;;;3.30;1.93;;;;;;;13.04;58.85;97031.31;6839704;28;20312;-84
2021/12/28 06:45:42;;;;;;;2.20;1.90;;;;;;;12.68;59.83;96997.03;6837870;28;20255;-86
2021/12/28 06:49:04;;;;;;;2.47;2.00;;;;;;;12.79;59.80;97016.81;6838835;28;20244;-84
2021/12/28 06:52:26;;;;;;;2.53;2.30;;;;;;;12.85;59.57;96989.56;6838523;28;20642;-85
2021/12/28 06:55:51;;;;;;;2.40;2.20;;;;;;;12.48;59.79;96971.78;6839487;28;20221;-84
2021/12/28 06:59:13;;;;;;;2.17;2.00;;;;;;;12.91;59.51;97012.00;6839551;28;20193;-82
2021/12/28 07:02:35;;;;;;;2.83;2.40;;;;;;;12.85;59.56;97019.31;6838161;28;20722;-83
2021/12/28 07:05:57;;;;;;;2.53;2.20;;;;;;;12.90;58.91;96984.16;6840544;28;20205;-82
2021/12/28 07:09:19;;;;;;;2.60;2.07;;;;;;;13.02;58.68;97021.84;6839127;28;20249;-83
2021/12/28 07:12:41;;;;;;;2.93;2.10;;;;;;;12.95;59.22;97026.66;6841187;28;20253;-82
2021/12/28 07:16:03;;;;;;;3.40;2.13;;;;;;;12.72;59.61;97016.25;6840969;28;20205;-81
2021/12/28 07:19:26;;;;;;;1.70;1.60;;;;;;;12.90;59.06;97013.09;6841896;28;20210;-83
2021/12/28 07:22:48;;;;;;;2.07;1.70;;;;;;;13.07;58.48;97020.00;6841492;28;20221;-82
2021/12/28 07:26:09;;;;;;;3.60;1.77;;;;;;;13.22;57.84;96997.59;6840623;28;20209;-82
2021/12/28 07:29:33;;;;;;;2.50;2.00;;;;;;;13.62;56.98;97014.75;6840680;28;20209;-82
2021/12/28 07:32:55;;;;;;;2.27;2.07;;;;;;;13.20;58.03;97024.09;6839196;28;20237;-80
2021/12/28 07:36:19;;;;;;;2.37;1.80;;;;;;;13.52;57.29;97008.50;6838077;28;20253;-85
2021/12/28 07:39:40;;;;;;;3.17;1.80;;;;;;;13.53;57.04;97019.09;6839486;28;20212;-84
2021/12/28 07:43:02;;;;;;;1.97;1.80;;;;;;;13.33;57.16;96964.06;6838490;28;20254;-84
2021/12/28 07:46:25;;;;;;;1.70;1.60;;;;;;;13.23;57.76;97010.03;6837255;28;20697;-83
2021/12/28 07:49:46;;;;;;;1.60;1.50;;;;;;;13.44;57.64;97006.31;6838416;28;20297;-82
2021/12/28 07:53:09;;;;;;;1.90;1.80;;;;;;;13.48;57.26;97020.94;6837697;28;20792;-81
2021/12/28 07:56:31;;;;;;;2.23;1.63;;;;;;;12.94;58.38;96984.47;6838360;28;20303;-84
2021/12/28 07:59:53;;;;;;;1.60;1.50;;;;;;;13.54;57.22;97017.16;6838024;28;20249;-81
2021/12/28 08:03:14;;;;;;;2.00;1.90;;;;;;;13.51;56.74;97021.22;6837308;28;20237;-81
2021/12/28 08:06:36;;;;;;;5.07;4.00;;;;;;;13.22;57.96;97027.38;6837143;28;20378;-81
2021/12/28 08:09:59;;;;;;;14.90;8.37;;;;;;;13.52;57.29;97038.28;6838515;28;20236;-81
2021/12/28 08:13:22;;;;;;;4.80;3.23;;;;;;;13.65;56.81;97035.91;6837007;28;20275;-83
2021/12/28 08:16:46;;;;;;;4.33;2.77;;;;;;;13.44;57.22;97026.06;6833835;28;20209;-81
2021/12/28 08:20:10;;;;;;;4.17;2.80;;;;;;;13.71;56.54;97024.00;6836691;28;20284;-80
2021/12/28 08:23:32;;;;;;;3.23;2.93;;;;;;;13.37;56.73;97027.41;6828572;28;20253;-81
2021/12/28 08:26:55;;;;;;;1.80;1.60;;;;;;;13.60;57.28;97018.81;6823800;28;20205;-80
2021/12/28 08:30:17;;;;;;;2.20;1.70;;;;;;;13.56;58.06;97039.38;6836107;28;20237;-80
2021/12/28 08:33:39;;;;;;;1.83;1.73;;;;;;;13.35;58.20;97033.09;6834690;28;20214;-81
2021/12/28 08:37:00;;;;;;;1.83;1.73;;;;;;;12.96;58.78;96987.72;6824643;28;20295;-83
2021/12/28 08:40:22;;;;;;;2.40;1.90;;;;;;;13.80;58.33;97030.50;6823049;29;20668;-82
2021/12/28 08:43:45;;;;;;;1.50;1.40;;;;;;;13.57;58.00;97032.91;6817782;29;20205;-83
2021/12/28 08:47:07;;;;;;;1.63;1.50;;;;;;;13.57;58.65;97028.28;6813968;29;20238;-82
2021/12/28 08:50:29;;;;;;;1.43;1.33;;;;;;;13.45;58.54;96978.97;6826875;28;20273;-83
2021/12/28 08:53:52;;;;;;;1.23;1.23;;;;;;;13.80;58.04;97046.75;6837673;29;20754;-83
2021/12/28 08:57:13;;;;;;;1.73;1.63;;;;;;;13.74;58.02;97055.16;6834994;28;20246;-82
2021/12/28 09:00:38;;;;;;;2.77;2.17;;;;;;;14.05;57.29;97027.03;6822829;29;20237;-81
2021/12/28 09:04:01;;;;;;;2.20;2.00;;;;;;;13.95;57.75;97054.91;6818208;29;20202;-81
2021/12/28 09:07:24;;;;;;;1.43;1.33;;;;;;;14.16;57.22;97044.91;6825453;29;20186;-82
2021/12/28 09:10:46;;;;;;;1.80;1.70;;;;;;;14.35;56.52;97054.16;6829076;28;20241;-81
2021/12/28 09:14:08;;;;;;;1.40;1.30;;;;;;;14.08;57.06;97048.13;6826386;28;20261;-82
2021/12/28 09:17:33;;;;;;;1.43;1.33;;;;;;;14.03;57.32;97059.78;6827756;29;20252;-82
2021/12/28 09:20:56;;;;;;;1.50;1.40;;;;;;;14.17;57.42;97055.47;6825332;28;20246;-83
2021/12/28 09:24:18;;;;;;;1.70;1.60;;;;;;;14.08;57.93;97070.66;6821265;28;20210;-82
2021/12/28 09:27:41;;;;;;;1.57;1.47;;;;;;;14.08;58.32;97072.53;6844991;28;20658;-81
2021/12/28 09:31:03;;;;;;;1.23;1.23;;;;;;;13.85;58.53;97060.31;6832120;28;20292;-81
2021/12/28 09:34:27;;;;;;;1.50;1.40;;;;;;;13.85;58.76;97037.81;6843611;28;20568;-82
2021/12/28 09:37:50;;;;;;;1.23;1.23;;;;;;;14.08;57.62;97064.41;6842118;28;20190;-82
2021/12/28 09:41:13;;;;;;;1.63;1.53;;;;;;;14.50;56.88;97063.09;6843305;28;20245;-81
2021/12/28 09:44:35;;;;;;;1.50;1.40;;;;;;;14.56;56.40;97066.63;6844581;28;20659;-83
2021/12/28 09:47:58;;;;;;;1.40;1.30;;;;;;;14.69;56.24;97066.09;6842461;29;20201;-83
2021/12/28 09:51:21;;;;;;;2.47;1.57;;;;;;;14.34;56.73;97028.94;6843398;28;20271;-80
2021/12/28 09:54:43;;;;;;;1.50;1.40;;;;;;;14.23;57.04;97034.66;6843811;28;20234;-82
2021/12/28 09:58:05;;;;;;;1.40;1.33;;;;;;;14.42;57.15;97074.50;6840569;28;20663;-81
2021/12/28 10:01:27;;;;;;;1.37;1.30;;;;;;;14.58;56.52;97059.84;6838986;28;20225;-81
2021/12/28 10:05:00;;;;;;;1.50;1.40;;;;;;;13.82;58.35;97046.50;6840242;28;20205;-81
2021/12/28 10:08:26;;;;;;;1.40;1.30;;;;;;;14.12;59.03;97074.44;6840405;28;20221;-81
2021/12/28 10:11:50;;;;;;;1.87;1.77;;;;;;;14.18;58.24;97061.72;6838830;28;20241;-83
2021/12/28 10:15:15;;;;;;;1.60;1.50;;;;;;;14.76;57.16;97072.84;6837513;29;20201;-83
2021/12/28 10:18:36;;;;;;;1.20;1.20;;;;;;;15.04;56.27;97071.44;6836100;28;20206;-81
2021/12/28 10:21:58;;;;;;;1.27;1.17;;;;;;;15.03;56.21;97043.50;6826265;28;20232;-82
2021/12/28 10:25:25;;;;;;;1.10;1.10;;;;;;;14.95;57.15;97063.06;6812532;29;20234;-79
2021/12/28 10:28:46;;;;;;;1.00;1.00;;;;;;;14.63;58.35;97065.25;6817368;29;20206;-80
2021/12/28 10:32:24;;;;;;;1.20;1.20;;;;;;;15.53;56.16;97062.34;6839397;28;20233;-82
2021/12/28 10:35:47;;;;;;;14.03;7.50;;;;;;;15.81;55.72;97071.72;6813082;29;20202;-80
2021/12/28 10:39:11;;;;;;;3.33;2.43;;;;;;;15.92;55.35;97063.22;6829390;29;20205;-81
2021/12/28 10:42:44;;;;;;;1.20;1.10;;;;;;;15.92;55.04;97068.66;6813290;29;20233;-81
2021/12/28 10:46:08;;;;;;;0.90;0.90;;;;;;;15.88;54.80;97010.53;6814085;29;20587;-84
2021/12/28 10:49:38;;;;;;;2.17;1.10;;;;;;;16.32;54.75;97065.69;6832481;29;20214;-84
2021/12/28 10:53:10;;;;;;;1.10;1.10;;;;;;;15.57;55.83;97030.81;6839536;28;20252;-83
2021/12/28 10:56:37;;;;;;;1.10;1.10;;;;;;;16.11;55.39;97033.47;6839311;28;20190;-80
2021/12/28 11:00:22;;;;;;;0.90;0.90;;;;;;;16.15;55.94;97065.25;6840868;28;20198;-83
2021/12/28 11:03:45;;;;;;;0.90;0.90;;;;;;;16.60;54.45;97056.78;6818478;28;20683;-81
2021/12/28 11:07:08;;;;;;;0.90;0.90;;;;;;;16.96;54.61;97068.97;6816901;29;20220;-81
2021/12/28 11:10:30;;;;;;;0.90;0.90;;;;;;;16.30;54.91;97062.44;6839176;28;20233;-83
2021/12/28 11:13:56;;;;;;;1.80;1.10;;;;;;;16.65;54.72;97026.81;6839866;28;20237;-81
2021/12/28 11:17:31;;;;;;;0.80;0.80;;;;;;;16.37;54.73;97018.59;6838456;28;20214;-80
2021/12/28 11:20:55;;;;;;;1.20;1.20;;;;;;;16.30;55.80;97040.69;6841308;28;20222;-83
2021/12/28 11:24:18;;;;;;;0.70;0.70;;;;;;;16.53;55.46;97031.00;6826959;28;20219;-80
2021/12/28 11:27:40;;;;;;;2.17;0.90;;;;;;;17.02;54.50;97045.19;6820089;29;20294;-81
2021/12/28 11:31:11;;;;;;;1.83;1.03;;;;;;;17.45;53.22;97030.59;6816700;29;20231;-81
2021/12/28 11:34:36;;;;;;;1.00;1.00;;;;;;;16.47;54.62;96964.13;6837550;28;20229;-80
2021/12/28 11:37:59;;;;;;;1.10;1.10;;;;;;;16.24;55.98;97033.66;6838089;28;20207;-78
2021/12/28 11:41:21;;;;;;;0.90;0.90;;;;;;;15.98;57.20;97034.91;6837842;28;20234;-81
2021/12/28 11:44:43;;;;;;;1.10;1.10;;;;;;;16.59;55.63;97027.13;6837175;28;20211;-80
2021/12/28 11:48:05;;;;;;;0.90;0.90;;;;;;;16.76;55.46;97017.41;6836881;28;20222;-80
2021/12/28 11:51:30;;;;;;;0.90;0.90;;;;;;;17.06;54.53;97017.13;6833012;28;20222;-80
2021/12/28 11:54:54;;;;;;;0.97;0.97;;;;;;;16.75;55.45;97004.13;6830956;29;20256;-82
2021/12/28 11:58:16;;;;;;;0.90;0.90;;;;;;;16.58;55.59;97012.69;6837497;28;20208;-81
2021/12/28 12:01:58;;;;;;;1.20;1.20;;;;;;;16.58;55.32;97007.25;6836895;28;20241;-80
2021/12/28 12:05:23;;;;;;;1.00;1.00;;;;;;;17.15;54.17;97006.41;6837655;28;20201;-81
2021/12/28 12:09:06;;;;;;;1.23;1.00;;;;;;;16.88;55.41;97014.31;6837932;28;20607;-79
2021/12/28 12:12:29;;;;;;;0.93;0.93;;;;;;;17.27;54.21;96996.72;6838552;28;20682;-80
2021/12/28 12:15:54;;;;;;;0.90;0.90;;;;;;;17.07;54.21;97001.59;6841669;28;20215;-83
2021/12/28 12:19:48;;;;;;;1.00;1.00;;;;;;;16.58;56.40;96996.38;6838004;28;20208;-83
2021/12/28 12:23:22;;;;;;;1.90;1.10;;;;;;;16.59;57.10;97011.63;6838900;28;20226;-81
2021/12/28 12:26:45;;;;;;;1.00;1.00;;;;;;;16.46;57.98;97003.31;6840049;28;20666;-81
2021/12/28 12:30:44;;;;;;;0.93;0.93;;;;;;;16.78;57.83;96990.75;6839512;28;20281;-81
2021/12/28 12:34:27;;;;;;;1.10;1.10;;;;;;;16.68;57.75;96990.84;6840810;28;20228;-81
2021/12/28 12:37:48;;;;;;;0.90;0.90;;;;;;;16.00;59.90;96993.88;6838174;28;20197;-81
2021/12/28 12:41:16;;;;;;;1.50;1.40;;;;;;;16.57;59.10;97002.13;6839106;28;20280;-81
2021/12/28 12:44:41;;;;;;;1.30;1.30;;;;;;;17.02;57.40;96988.03;6837896;29;20204;-81
2021/12/28 12:48:03;;;;;;;1.00;1.00;;;;;;;16.36;59.48;96971.56;6840654;28;20256;-81
2021/12/28 12:51:36;;;;;;;4.63;4.23;;;;;;;16.76;58.44;96978.53;6839886;28;20226;-81
2021/12/28 12:54:58;;;;;;;1.17;1.13;;;;;;;17.10;57.00;96971.06;6838206;28;20233;-81
2021/12/28 12:58:20;;;;;;;1.13;1.03;;;;;;;16.72;56.92;96918.44;6839900;28;20211;-81
2021/12/28 13:02:04;;;;;;;0.90;0.90;;;;;;;16.94;56.56;96928.78;6840363;28;20226;-81
2021/12/28 13:05:26;;;;;;;2.93;1.90;;;;;;;17.03;57.68;96951.53;6839167;28;20208;-80
2021/12/28 13:08:57;;;;;;;1.30;1.20;;;;;;;17.03;57.06;96957.78;6844785;28;20209;-82
2021/12/28 13:12:20;;;;;;;2.67;1.70;;;;;;;17.00;57.27;96952.13;6837063;28;20226;-81
2021/12/28 13:15:42;;;;;;;1.10;1.10;;;;;;;16.87;57.00;96937.28;6828819;29;20799;-80
2021/12/28 13:19:09;;;;;;;3.03;2.60;;;;;;;16.89;56.17;96929.66;6828858;29;20210;-81
2021/12/28 13:22:35;;;;;;;1.93;1.83;;;;;;;16.54;57.52;96953.72;6832990;29;20218;-82
2021/12/28 13:25:57;;;;;;;3.20;2.90;;;;;;;16.93;56.39;96938.84;6833993;29;20856;-81
2021/12/28 13:29:29;;;;;;;2.10;1.90;;;;;;;16.92;56.27;96939.97;6828646;29;20211;-83
2021/12/28 13:32:54;;;;;;;1.20;1.20;;;;;;;16.51;57.75;96938.00;6821619;29;20803;-81
2021/12/28 13:36:17;;;;;;;1.50;1.40;;;;;;;16.92;56.29;96920.91;6816469;29;20262;-79
2021/12/28 13:39:43;;;;;;;1.40;1.30;;;;;;;16.77;56.27;96928.44;6821358;28;20288;-81
2021/12/28 13:43:10;;;;;;;1.63;1.50;;;;;;;16.23;57.26;96942.28;6823268;28;20249;-81
2021/12/28 13:46:32;;;;;;;2.47;1.17;;;;;;;16.54;56.20;96926.50;6835098;28;20293;-85
2021/12/28 13:50:11;;;;;;;1.30;1.20;;;;;;;16.58;55.10;96889.47;6834021;28;20211;-83
2021/12/28 13:53:38;;;;;;;1.17;1.00;;;;;;;16.33;55.55;96916.94;6810964;29;20289;-83
2021/12/28 13:57:01;;;;;;;1.27;1.17;;;;;;;16.08;56.29;96923.41;6809909;29;20208;-82
2021/12/28 14:00:24;;;;;;;1.00;1.00;;;;;;;16.52;55.78;96932.25;6830749;28;20789;-79
2021/12/28 14:03:55;;;;;;;1.60;1.20;;;;;;;16.50;55.00;96903.69;6809677;28;20246;-82
2021/12/28 14:07:17;;;;;;;1.30;1.00;;;;;;;16.23;55.56;96925.16;6808608;29;20196;-83
2021/12/28 14:10:40;;;;;;;1.10;1.10;;;;;;;16.37;55.28;96931.56;6807420;29;20261;-85
2021/12/28 14:14:02;;;;;;;1.30;1.20;;;;;;;16.13;55.80;96920.63;6810819;29;20254;-84
2021/12/28 14:17:24;;;;;;;1.90;1.70;;;;;;;16.13;55.81;96922.53;6811567;29;20214;-84
2021/12/28 14:20:46;;;;;;;2.80;1.30;;;;;;;15.94;55.80;96881.69;6817860;28;20234;-84
2021/12/28 14:24:10;;;;;;;3.17;1.30;;;;;;;16.06;55.20;96897.59;6838790;28;20690;-84
2021/12/28 14:27:36;;;;;;;2.30;1.77;;;;;;;16.40;54.86;96895.66;6837815;28;20211;-85
2021/12/28 14:31:13;;;;;;;2.17;1.93;;;;;;;16.79;53.39;96894.41;6821178;28;20239;-85
2021/12/28 14:34:38;;;;;;;1.57;1.47;;;;;;;16.88;52.90;96908.16;6811702;29;20267;-85
2021/12/28 14:37:59;;;;;;;1.63;1.53;;;;;;;16.52;54.09;96896.88;6813974;29;20270;-84
2021/12/28 14:41:27;;;;;;;2.30;1.43;;;;;;;16.74;53.75;96896.38;6819896;29;20309;-85
2021/12/28 14:44:56;;;;;;;2.73;1.77;;;;;;;17.02;52.98;96890.03;6823060;28;20206;-84
2021/12/28 14:48:18;;;;;;;1.70;1.60;;;;;;;16.78;53.72;96920.00;6808257;29;20694;-84
2021/12/28 14:51:41;;;;;;;2.97;2.30;;;;;;;16.58;54.56;96933.00;6809945;29;20603;-85
2021/12/28 14:55:05;;;;;;;1.70;1.60;;;;;;;16.90;53.71;96933.19;6809358;29;20234;-83
2021/12/28 14:58:28;;;;;;;2.37;1.73;;;;;;;16.80;54.70;96953.16;6810989;29;20207;-84
2021/12/28 15:01:53;;;;;;;1.37;1.27;;;;;;;16.36;55.37;96932.66;6811353;29;20246;-84
2021/12/28 15:05:15;;;;;;;2.53;1.60;;;;;;;16.22;56.63;96958.91;6811344;29;20693;-84
2021/12/28 15:08:37;;;;;;;1.40;1.30;;;;;;;16.05;58.04;96974.81;6833644;29;20218;-84
2021/12/28 15:12:01;;;;;;;2.70;1.93;;;;;;;16.22;58.62;96973.28;6838646;28;20745;-83
2021/12/28 15:15:23;;;;;;;2.53;2.03;;;;;;;16.10;59.36;96972.84;6838601;28;20268;-84
2021/12/28 15:18:48;;;;;;;2.57;1.67;;;;;;;16.04;59.99;96979.41;6839823;28;20205;-83
2021/12/28 15:22:12;;;;;;;3.80;3.40;;;;;;;15.50;61.16;96969.72;6842671;28;20246;-83
2021/12/28 15:25:35;;;;;;;4.63;3.63;;;;;;;16.00;60.61;96996.59;6845590;28;20210;-83
2021/12/28 15:28:57;;;;;;;5.37;3.17;;;;;;;15.84;61.36;97038.53;6846201;28;20682;-82
2021/12/28 15:32:19;;;;;;;6.23;2.87;;;;;;;14.57;62.59;97070.97;6840667;28;20237;-83
2021/12/28 15:35:43;;;;;;;4.17;3.07;;;;;;;14.13;62.58;97095.03;6834147;28;20679;-83
2021/12/28 15:39:06;;;;;;;6.33;3.80;;;;;;;14.38;61.58;97113.25;6833485;28;20209;-84
2021/12/28 15:42:32;;;;;;;4.97;3.37;;;;;;;14.37;59.85;97108.91;6828652;28;20280;-82
2021/12/28 15:45:55;;;;;;;4.17;2.20;;;;;;;13.93;60.74;97115.88;6828769;28;20203;-83
2021/12/28 15:49:17;;;;;;;5.60;3.07;;;;;;;13.58;62.30;97146.31;6823734;28;20236;-81
2021/12/28 15:52:40;;;;;;;4.10;2.53;;;;;;;13.27;61.78;97166.19;6841322;28;20584;-80
2021/12/28 15:56:02;;;;;;;7.20;2.10;;;;;;;12.89;62.53;97188.09;6844558;28;20229;-81
2021/12/28 15:59:23;;;;;;;5.10;1.97;;;;;;;12.83;61.77;97175.63;6842221;28;20210;-80
2021/12/28 16:02:45;;;;;;;5.10;2.43;;;;;;;12.96;61.30;97179.78;6841022;28;20285;-82
2021/12/28 16:06:07;;;;;;;5.90;2.63;;;;;;;12.51;60.79;97203.72;6828070;28;20202;-80
2021/12/28 16:09:30;;;;;;;5.80;2.70;;;;;;;12.51;60.61;97218.03;6841834;28;20665;-80
2021/12/28 16:12:51;;;;;;;8.43;2.87;;;;;;;12.73;59.14;97174.69;6839580;28;20241;-82
2021/12/28 16:16:14;;;;;;;8.60;3.00;;;;;;;12.75;58.20;97205.03;6838773;28;20236;-82
2021/12/28 16:19:36;;;;;;;7.03;2.63;;;;;;;12.58;58.92;97225.94;6816886;28;20276;-80
2021/12/28 16:22:57;;;;;;;8.20;3.80;;;;;;;12.18;59.73;97256.06;6816974;29;20263;-81
2021/12/28 16:26:20;;;;;;;6.57;3.13;;;;;;;12.14;60.13;97275.72;6834747;29;20213;-83
2021/12/28 16:29:42;;;;;;;9.53;5.37;;;;;;;12.40;59.60;97283.06;6842583;28;20663;-80
2021/12/28 16:33:04;;;;;;;11.20;5.53;;;;;;;12.01;60.39;97290.44;6887239;23;20237;-84
2021/12/28 16:36:26;;;;;;;5.50;2.53;;;;;;;11.93;60.85;97276.53;6868569;28;20236;-85
2021/12/28 16:39:47;;;;;;;4.00;2.43;;;;;;;11.91;60.34;97306.50;6869412;28;20208;-84
2021/12/28 16:43:10;;;;;;;4.37;3.60;;;;;;;11.83;59.83;97331.22;6845982;28;20235;-83
2021/12/28 16:46:32;;;;;;;4.27;3.17;;;;;;;11.79;59.60;97318.47;6841799;28;20217;-83
2021/12/28 16:49:55;;;;;;;5.93;3.20;;;;;;;11.03;58.95;97178.09;6842120;28;20220;-83
2021/12/28 16:53:17;;;;;;;3.13;2.43;;;;;;;11.60;57.92;97274.75;6842120;28;20249;-82
2021/12/28 16:56:38;;;;;;;2.83;2.10;;;;;;;11.47;58.44;97293.97;6841595;28;20574;-84
2021/12/28 17:00:02;;;;;;;2.17;1.77;;;;;;;11.51;57.54;97278.09;6841580;28;20211;-84
2021/12/28 17:03:24;;;;;;;3.50;2.20;;;;;;;11.44;58.37;97291.75;6842354;28;20228;-83
2021/12/28 17:06:46;;;;;;;1.30;1.20;;;;;;;11.44;56.77;97262.06;6840575;28;20206;-85
2021/12/28 17:10:09;;;;;;;5.47;3.73;;;;;;;11.74;57.10;97264.41;6816893;29;20213;-82
2021/12/28 17:13:30;;;;;;;2.50;2.30;;;;;;;11.77;55.92;97280.94;6814992;29;20258;-83
2021/12/28 17:16:53;;;;;;;4.23;2.30;;;;;;;11.74;55.33;97299.50;6815133;29;20577;-83
2021/12/28 17:20:15;;;;;;;1.83;1.73;;;;;;;12.06;54.90;97322.09;6815758;29;20671;-83
2021/12/28 17:23:37;;;;;;;1.90;1.80;;;;;;;12.02;54.01;97318.25;6815767;29;20209;-82
2021/12/28 17:26:59;;;;;;;3.40;1.70;;;;;;;12.27;53.03;97329.41;6814826;29;20209;-82
2021/12/28 17:30:21;;;;;;;1.67;1.57;;;;;;;12.51;52.61;97334.28;6824035;29;20228;-82
2021/12/28 17:33:44;;;;;;;2.53;1.50;;;;;;;12.33;52.72;97267.03;6842130;28;20209;-85
2021/12/28 17:37:06;;;;;;;3.70;2.53;;;;;;;12.93;51.60;97331.75;6832961;28;20213;-83
2021/12/28 17:40:28;;;;;;;3.17;2.40;;;;;;;12.95;50.80;97335.88;6816890;29;20202;-83
2021/12/28 17:43:49;;;;;;;4.43;2.63;;;;;;;12.69;51.90;97343.94;6830303;29;20260;-82
2021/12/28 17:47:11;;;;;;;4.30;2.20;;;;;;;12.72;50.91;97344.25;6830195;29;20666;-81
2021/12/28 17:50:34;;;;;;;40.50;25.83;;;;;;;13.15;49.84;97337.97;6833888;29;20233;-83
2021/12/28 17:53:56;;;;;;;25.07;15.90;;;;;;;13.50;49.26;97330.94;6838304;29;20229;-79
2021/12/28 17:57:17;;;;;;;19.40;8.77;;;;;;;13.38;49.33;97324.06;6833466;29;20212;-82
2021/12/28 18:00:40;;;;;;;11.57;5.43;;;;;;;13.46;49.26;97335.22;6825419;29;20265;-83
2021/12/28 18:04:02;;;;;;;9.07;4.23;;;;;;;13.65;49.08;97328.38;6837436;28;20695;-82
2021/12/28 18:07:25;;;;;;;9.33;3.80;;;;;;;13.59;49.05;97331.28;6836765;28;20198;-81
2021/12/28 18:10:46;;;;;;;4.43;2.17;;;;;;;13.48;49.37;97334.97;6833946;29;20217;-82
2021/12/28 18:14:08;;;;;;;7.77;2.80;;;;;;;13.59;49.39;97312.31;6827986;29;20319;-82
2021/12/28 18:17:31;;;;;;;10.13;2.73;;;;;;;13.57;49.59;97314.50;6821653;29;20214;-83
2021/12/28 18:20:53;;;;;;;6.27;3.10;;;;;;;13.32;50.88;97308.84;6822090;29;20289;-83
2021/12/28 18:24:17;;;;;;;6.43;3.13;;;;;;;13.15;50.36;97287.34;6820956;29;20210;-83
2021/12/28 18:27:41;;;;;;;6.40;2.80;;;;;;;13.23;50.99;97305.81;6842297;29;20327;-80
2021/12/28 18:31:03;;;;;;;6.27;2.37;;;;;;;12.79;52.69;97304.31;6823161;28;20241;-81
2021/12/28 18:34:24;;;;;;;4.77;2.60;;;;;;;13.33;52.18;97318.63;6818955;29;20236;-82
2021/12/28 18:37:46;;;;;;;6.47;2.53;;;;;;;12.29;54.45;97270.50;6820703;29;20213;-81
2021/12/28 18:41:09;;;;;;;6.70;3.00;;;;;;;12.59;55.03;97300.56;6826690;29;20232;-82
2021/12/28 18:44:30;;;;;;;4.73;2.20;;;;;;;11.96;56.16;97271.44;6822624;28;20632;-82
2021/12/28 18:47:52;;;;;;;5.03;2.27;;;;;;;12.03;57.31;97319.91;6844714;28;20296;-83
2021/12/28 18:51:14;;;;;;;5.77;2.60;;;;;;;11.75;58.48;97285.75;6844069;28;20233;-84
2021/12/28 18:54:35;;;;;;;2.80;2.30;;;;;;;11.60;60.47;97306.31;6844443;28;20640;-83
2021/12/28 18:57:59;;;;;;;6.40;4.23;;;;;;;12.01;59.85;97320.13;6838426;28;20207;-82
2021/12/28 19:01:21;;;;;;;5.27;2.97;;;;;;;11.77;60.41;97286.31;6832825;28;20240;-82
2021/12/28 19:04:43;;;;;;;2.83;2.20;;;;;;;11.62;60.96;97307.69;6827360;29;20210;-82
2021/12/28 19:08:05;;;;;;;4.30;2.30;;;;;;;11.94;59.96;97294.38;6830873;29;20208;-82
2021/12/28 19:11:27;;;;;;;3.00;2.67;;;;;;;11.64;61.01;97324.44;6834081;29;20232;-82
2021/12/28 19:14:50;;;;;;;5.27;1.80;;;;;;;11.65;61.21;97333.38;6827553;28;20226;-82
2021/12/28 19:18:13;;;;;;;2.87;1.73;;;;;;;11.65;60.83;97300.97;6837942;29;20216;-82
2021/12/28 19:21:35;;;;;;;3.03;1.87;;;;;;;12.11;60.79;97328.34;6825395;28;20281;-82
2021/12/28 19:24:56;;;;;;;4.47;2.20;;;;;;;12.04;60.70;97316.13;6818597;29;20214;-81
2021/12/28 19:28:18;;;;;;;4.00;2.10;;;;;;;11.64;61.95;97288.56;6821378;29;20207;-82
2021/12/28 19:31:41;;;;;;;3.13;2.83;;;;;;;11.80;61.61;97309.31;6844442;28;20238;-82
2021/12/28 19:35:04;;;;;;;4.47;2.60;;;;;;;11.65;61.36;97301.81;6845348;28;20229;-81
2021/12/28 19:38:25;;;;;;;2.70;2.40;;;;;;;11.60;61.76;97273.91;6845333;28;20220;-81
2021/12/28 19:41:48;;;;;;;4.03;2.80;;;;;;;11.43;62.59;97306.31;6845594;28;20255;-81
2021/12/28 19:45:10;;;;;;;3.20;2.20;;;;;;;11.45;62.71;97312.25;6843563;28;20299;-82
2021/12/28 19:48:33;;;;;;;3.63;2.50;;;;;;;11.61;62.27;97306.06;6845869;28;20216;-82
2021/12/28 19:51:55;;;;;;;4.70;2.23;;;;;;;11.54;62.69;97301.88;6845004;28;20291;-82
2021/12/28 19:55:18;;;;;;;2.73;2.53;;;;;;;11.62;61.87;97307.69;6845258;28;20232;-82
2021/12/28 19:58:40;;;;;;;3.67;2.47;;;;;;;11.61;62.25;97295.28;6846928;28;20209;-82
2021/12/28 20:02:05;;;;;;;2.93;2.53;;;;;;;11.75;62.01;97272.25;6848090;28;20236;-82
2021/12/28 20:05:28;;;;;;;3.67;2.67;;;;;;;11.77;62.55;97305.22;6847336;28;20213;-81
2021/12/28 20:08:51;;;;;;;5.00;2.17;;;;;;;11.57;62.87;97277.91;6847343;28;20210;-82
2021/12/28 20:12:12;;;;;;;4.23;2.20;;;;;;;11.18;64.64;97299.69;6844241;28;20235;-83
2021/12/28 20:15:35;;;;;;;3.33;2.23;;;;;;;11.25;64.45;97303.84;6843392;28;20505;-82
2021/12/28 20:18:57;;;;;;;2.30;2.10;;;;;;;11.14;64.96;97304.75;6844907;28;20218;-81
2021/12/28 20:22:20;;;;;;;4.53;2.87;;;;;;;11.12;65.22;97301.50;6844827;28;20242;-82
2021/12/28 20:25:42;;;;;;;3.10;2.60;;;;;;;11.42;64.43;97309.25;6843329;28;20212;-81
2021/12/28 20:29:04;;;;;;;3.70;3.40;;;;;;;11.90;62.64;97298.63;6843644;28;20212;-82